Time;durP1;ratioP1;P1;durP2;ratioP2;P2;SDS_P1;SDS_P2;PMS_P1;PMS_P2;Temp;Humidity;BMP_temperature;BMP_pressure;BME280_temperature;BME280_humidity;BME280_pressure;Samples;Min_cycle;Max_cycle;Signal;HPM_P1;HPM_P2
2022/04/03 00:02:15;;;;;;;32.05;18.00;;;;;;;;;;5016539;28;20058;-39
2022/04/03 00:04:41;;;;;;;33.95;17.55;;;;;;;;;;5016614;28;20455;-40
2022/04/03 00:07:08;;;;;;;30.83;16.92;;;;;;;;;;5016446;28;20064;-40
2022/04/03 00:09:34;;;;;;;29.48;17.80;;;;;;;;;;5016894;28;20046;-40
2022/04/03 00:12:02;;;;;;;31.02;17.80;;;;;;;;;;5016775;28;20108;-44
2022/04/03 00:14:28;;;;;;;27.95;15.65;;;;;;;;;;5016278;28;20495;-41
2022/04/03 00:16:54;;;;;;;29.55;16.63;;;;;;;;;;5016394;28;20415;-40
2022/04/03 00:19:22;;;;;;;27.77;15.95;;;;;;;;;;5016474;28;20435;-39
2022/04/03 00:21:49;;;;;;;30.33;17.65;;;;;;;;;;5015934;28;20136;-40
2022/04/03 00:24:15;;;;;;;31.00;17.08;;;;;;;;;;5016707;28;20053;-40
2022/04/03 00:26:42;;;;;;;30.33;17.17;;;;;;;;;;5016309;28;20058;-40
2022/04/03 00:29:08;;;;;;;27.95;16.20;;;;;;;;;;5016047;28;20050;-39
2022/04/03 00:31:35;;;;;;;29.50;17.10;;;;;;;;;;5016516;28;20054;-40
2022/04/03 00:34:01;;;;;;;28.08;15.80;;;;;;;;;;5015863;28;20399;-40
2022/04/03 00:36:29;;;;;;;29.58;16.13;;;;;;;;;;5016295;28;20057;-40
2022/04/03 00:38:55;;;;;;;28.00;16.65;;;;;;;;;;5015487;28;20157;-40
2022/04/03 00:41:22;;;;;;;29.58;16.45;;;;;;;;;;5016267;28;20049;-40
2022/04/03 00:43:48;;;;;;;27.80;16.00;;;;;;;;;;5015854;28;20050;-40
2022/04/03 00:46:16;;;;;;;28.60;17.00;;;;;;;;;;5016258;28;20062;-40
2022/04/03 00:48:42;;;;;;;27.67;15.45;;;;;;;;;;5015713;28;20429;-41
2022/04/03 00:51:09;;;;;;;29.17;16.48;;;;;;;;;;5015781;28;20140;-40
2022/04/03 00:53:36;;;;;;;28.73;15.98;;;;;;;;;;5015733;28;20406;-39
2022/04/03 00:56:02;;;;;;;28.20;15.75;;;;;;;;;;5015913;28;20131;-40
2022/04/03 00:58:30;;;;;;;29.95;16.17;;;;;;;;;;5015544;28;20053;-40
2022/04/03 01:00:56;;;;;;;27.67;15.43;;;;;;;;;;5015651;28;20060;-41
2022/04/03 01:03:22;;;;;;;26.27;14.77;;;;;;;;;;5015288;28;20430;-40
2022/04/03 01:05:49;;;;;;;26.50;15.23;;;;;;;;;;5015476;28;20050;-40
2022/04/03 01:08:15;;;;;;;25.35;14.98;;;;;;;;;;5015629;28;20050;-40
2022/04/03 01:10:43;;;;;;;25.52;14.70;;;;;;;;;;5015397;28;20061;-38
2022/04/03 01:13:11;;;;;;;25.80;14.63;;;;;;;;;;5015661;28;20490;-40
2022/04/03 01:15:37;;;;;;;;;;;;;;;;;;5016122;28;20053;-39
2022/04/03 01:18:03;;;;;;;26.58;14.98;;;;;;;;;;5015633;28;19995;-40
2022/04/03 01:20:29;;;;;;;25.98;14.07;;;;;;;;;;5015541;28;20054;-40
2022/04/03 01:22:56;;;;;;;25.52;14.27;;;;;;;;;;5015455;28;20123;-40
2022/04/03 01:25:23;;;;;;;25.48;15.13;;;;;;;;;;5015703;28;20058;-40
2022/04/03 01:27:49;;;;;;;25.50;14.63;;;;;;;;;;5014943;28;20053;-40
2022/04/03 01:30:16;;;;;;;25.35;13.95;;;;;;;;;;5015484;28;20119;-40
2022/04/03 01:32:42;;;;;;;24.13;13.85;;;;;;;;;;5015964;28;20053;-40
2022/04/03 01:35:09;;;;;;;24.10;14.23;;;;;;;;;;5015319;28;20058;-40
2022/04/03 01:37:35;;;;;;;24.80;14.35;;;;;;;;;;5014586;28;20046;-39
2022/04/03 01:40:02;;;;;;;23.77;14.63;;;;;;;;;;5015169;28;20116;-40
2022/04/03 01:42:30;;;;;;;24.10;13.65;;;;;;;;;;5014867;28;20140;-40
2022/04/03 01:44:56;;;;;;;23.65;13.82;;;;;;;;;;5014765;28;20057;-40
2022/04/03 01:47:22;;;;;;;24.48;14.55;;;;;;;;;;5015035;28;20053;-40
2022/04/03 01:49:49;;;;;;;22.52;13.45;;;;;;;;;;5013903;28;20080;-40
2022/04/03 01:52:15;;;;;;;23.50;13.50;;;;;;;;;;5014720;28;20046;-40
2022/04/03 01:54:41;;;;;;;24.38;13.23;;;;;;;;;;5014632;28;20056;-38
2022/04/03 01:57:08;;;;;;;24.40;14.07;;;;;;;;;;5014953;28;20046;-41
2022/04/03 01:59:36;;;;;;;23.02;13.50;;;;;;;;;;5014969;28;20046;-40
2022/04/03 02:02:02;;;;;;;23.08;13.15;;;;;;;;;;5014617;28;20054;-40
2022/04/03 02:04:28;;;;;;;24.50;13.43;;;;;;;;;;5014602;28;20053;-40
2022/04/03 02:06:55;;;;;;;26.13;14.35;;;;;;;;;;5015209;28;20204;-41
2022/04/03 02:09:21;;;;;;;23.63;13.20;;;;;;;;;;5014788;28;20045;-40
2022/04/03 02:11:47;;;;;;;22.83;13.23;;;;;;;;;;5015089;28;20053;-40
2022/04/03 02:14:13;;;;;;;24.13;14.02;;;;;;;;;;5014992;28;20050;-43
2022/04/03 02:16:41;;;;;;;23.10;13.23;;;;;;;;;;5014608;28;20430;-43
2022/04/03 02:19:07;;;;;;;23.15;12.80;;;;;;;;;;5015991;28;20065;-40
2022/04/03 02:21:33;;;;;;;22.10;13.30;;;;;;;;;;5015033;28;20053;-41
2022/04/03 02:24:00;;;;;;;22.92;12.57;;;;;;;;;;5014940;28;20111;-42
2022/04/03 02:26:26;;;;;;;21.98;12.30;;;;;;;;;;5014142;28;20053;-40
2022/04/03 02:28:52;;;;;;;22.75;12.93;;;;;;;;;;5013945;28;20050;-40
2022/04/03 02:31:19;;;;;;;23.20;12.35;;;;;;;;;;5015736;28;20379;-40
2022/04/03 02:33:47;;;;;;;22.45;12.50;;;;;;;;;;5014857;28;20124;-43
2022/04/03 02:36:13;;;;;;;21.88;11.85;;;;;;;;;;5015620;28;20049;-45
2022/04/03 02:38:39;;;;;;;21.13;12.13;;;;;;;;;;5014387;28;20050;-40
2022/04/03 02:41:06;;;;;;;21.80;12.32;;;;;;;;;;5014227;28;20079;-40
2022/04/03 02:43:32;;;;;;;21.02;12.43;;;;;;;;;;5014176;28;20053;-40
2022/04/03 02:45:58;;;;;;;21.35;11.75;;;;;;;;;;5013502;28;20500;-40
2022/04/03 02:48:25;;;;;;;20.95;12.32;;;;;;;;;;5013972;28;20108;-40
2022/04/03 02:50:53;;;;;;;21.38;12.10;;;;;;;;;;5014052;28;20054;-40
2022/04/03 02:53:19;;;;;;;21.48;12.60;;;;;;;;;;5013563;28;20054;-40
2022/04/03 02:55:46;;;;;;;22.90;13.07;;;;;;;;;;5013610;28;20914;-40
2022/04/03 02:58:12;;;;;;;24.00;13.15;;;;;;;;;;5013660;28;20046;-40
2022/04/03 03:00:38;;;;;;;22.40;12.43;;;;;;;;;;5013394;28;20390;-40
2022/04/03 03:03:06;;;;;;;20.75;12.00;;;;;;;;;;5013634;28;20479;-40
2022/04/03 03:05:32;;;;;;;21.10;12.98;;;;;;;;;;5013429;28;20060;-40
2022/04/03 03:08:01;;;;;;;19.48;11.38;;;;;;;;;;5013669;28;20058;-41
2022/04/03 03:10:27;;;;;;;21.05;12.07;;;;;;;;;;5013658;28;20053;-42
2022/04/03 03:12:54;;;;;;;20.42;11.68;;;;;;;;;;5013515;28;20108;-40
2022/04/03 03:15:21;;;;;;;19.38;12.10;;;;;;;;;;5013273;28;20064;-40
2022/04/03 03:17:48;;;;;;;20.13;11.20;;;;;;;;;;5013488;28;20383;-40
2022/04/03 03:20:14;;;;;;;20.45;11.07;;;;;;;;;;5013546;28;20065;-40
2022/04/03 03:22:41;;;;;;;20.08;11.60;;;;;;;;;;5013130;28;20461;-40
2022/04/03 03:25:09;;;;;;;21.33;11.38;;;;;;;;;;5013589;28;20054;-39
2022/04/03 03:27:35;;;;;;;19.42;11.48;;;;;;;;;;5013481;28;20843;-40
2022/04/03 03:30:01;;;;;;;20.55;12.00;;;;;;;;;;5013134;28;20054;-38
2022/04/03 03:32:27;;;;;;;20.02;12.07;;;;;;;;;;5013722;28;20115;-40
2022/04/03 03:34:54;;;;;;;19.77;11.43;;;;;;;;;;5013316;28;20490;-40
2022/04/03 03:37:21;;;;;;;19.02;10.75;;;;;;;;;;5013045;28;20081;-40
2022/04/03 03:39:47;;;;;;;20.42;11.75;;;;;;;;;;5013482;28;20151;-40
2022/04/03 03:42:15;;;;;;;20.30;11.13;;;;;;;;;;5013361;28;20180;-40
2022/04/03 03:44:41;;;;;;;18.75;11.32;;;;;;;;;;5013234;28;20050;-39
2022/04/03 03:47:08;;;;;;;19.48;11.80;;;;;;;;;;5013575;28;20053;-40
2022/04/03 03:49:34;;;;;;;19.00;11.18;;;;;;;;;;5013417;28;20527;-40
2022/04/03 03:52:01;;;;;;;18.80;10.82;;;;;;;;;;5013544;28;20049;-40
2022/04/03 03:54:27;;;;;;;18.52;10.05;;;;;;;;;;5013069;28;20046;-41
2022/04/03 03:56:53;;;;;;;19.73;10.98;;;;;;;;;;5013052;28;20475;-40
2022/04/03 03:59:21;;;;;;;20.95;11.60;;;;;;;;;;5013099;28;20058;-40
2022/04/03 04:01:47;;;;;;;20.30;11.27;;;;;;;;;;5013987;28;20053;-40
2022/04/03 04:04:13;;;;;;;19.90;11.00;;;;;;;;;;5012560;28;20431;-40
2022/04/03 04:06:41;;;;;;;20.13;10.98;;;;;;;;;;5013200;28;20426;-40
2022/04/03 04:09:07;;;;;;;18.35;10.57;;;;;;;;;;5013175;28;20081;-41
2022/04/03 04:11:34;;;;;;;19.25;10.43;;;;;;;;;;5013072;28;20050;-40
2022/04/03 04:14:00;;;;;;;18.23;10.30;;;;;;;;;;5015914;28;20054;-39
2022/04/03 04:16:28;;;;;;;19.02;10.50;;;;;;;;;;5016687;28;20064;-41
2022/04/03 04:18:54;;;;;;;19.98;10.90;;;;;;;;;;5016289;28;20466;-38
2022/04/03 04:21:20;;;;;;;19.48;10.80;;;;;;;;;;5016458;28;20054;-40
2022/04/03 04:23:47;;;;;;;18.13;10.30;;;;;;;;;;5016609;28;20050;-40
2022/04/03 04:26:14;;;;;;;18.20;10.23;;;;;;;;;;5016095;28;20054;-40
2022/04/03 04:28:40;;;;;;;18.75;10.80;;;;;;;;;;5016078;28;20140;-40
2022/04/03 04:31:06;;;;;;;17.15;9.95;;;;;;;;;;5016080;28;20064;-40
2022/04/03 04:33:34;;;;;;;18.10;10.38;;;;;;;;;;5016120;28;20053;-40
2022/04/03 04:36:00;;;;;;;19.13;10.70;;;;;;;;;;5015915;28;20108;-42
2022/04/03 04:38:26;;;;;;;18.70;10.70;;;;;;;;;;5016035;28;20049;-40
2022/04/03 04:40:53;;;;;;;18.33;9.82;;;;;;;;;;5015902;28;20049;-40
2022/04/03 04:43:19;;;;;;;17.38;9.30;;;;;;;;;;5016263;28;20149;-40
2022/04/03 04:45:45;;;;;;;18.00;10.07;;;;;;;;;;5015657;28;20383;-40
2022/04/03 04:48:12;;;;;;;19.08;10.35;;;;;;;;;;5015509;28;20046;-40
2022/04/03 04:50:39;;;;;;;17.50;9.90;;;;;;;;;;5015919;28;20111;-41
2022/04/03 04:53:06;;;;;;;18.48;10.68;;;;;;;;;;5015545;28;20050;-40
2022/04/03 04:55:32;;;;;;;17.23;9.68;;;;;;;;;;5015895;28;20140;-40
2022/04/03 04:57:58;;;;;;;17.67;9.50;;;;;;;;;;5016091;28;20049;-40
2022/04/03 05:00:25;;;;;;;17.77;9.93;;;;;;;;;;5015795;28;20490;-40
2022/04/03 05:02:52;;;;;;;18.00;10.10;;;;;;;;;;5015901;28;20053;-41
2022/04/03 05:05:19;;;;;;;16.38;9.90;;;;;;;;;;5015795;28;20073;-40
2022/04/03 05:07:48;;;;;;;18.63;9.60;;;;;;;;;;5015791;28;20253;-40
2022/04/03 05:10:16;;;;;;;17.33;9.85;;;;;;;;;;5015206;28;20057;-40
2022/04/03 05:12:42;;;;;;;17.05;9.70;;;;;;;;;;5015625;28;20061;-40
2022/04/03 05:15:10;;;;;;;18.00;9.75;;;;;;;;;;5016028;28;20057;-43
2022/04/03 05:17:37;;;;;;;17.98;10.18;;;;;;;;;;5015919;28;20058;-42
2022/04/03 05:20:03;;;;;;;17.25;9.60;;;;;;;;;;5015719;28;20050;-40
2022/04/03 05:22:30;;;;;;;17.73;9.55;;;;;;;;;;5015220;28;20414;-43
2022/04/03 05:24:58;;;;;;;17.48;9.82;;;;;;;;;;5015953;28;20049;-42
2022/04/03 05:27:24;;;;;;;16.95;9.88;;;;;;;;;;5015569;28;20054;-41
2022/04/03 05:29:51;;;;;;;18.83;10.45;;;;;;;;;;5015642;28;20050;-40
2022/04/03 05:32:25;;;;;;;16.35;8.98;;;;;;;;;;5016699;28;20053;-45
2022/04/03 05:34:52;;;;;;;16.73;8.82;;;;;;;;;;5016527;28;20050;-43
2022/04/03 05:37:19;;;;;;;16.00;9.25;;;;;;;;;;5016180;28;20056;-42
2022/04/03 05:39:45;;;;;;;16.38;9.10;;;;;;;;;;5016275;28;20046;-40
2022/04/03 05:42:13;;;;;;;17.30;9.43;;;;;;;;;;5016024;28;20065;-42
2022/04/03 05:44:39;;;;;;;16.50;9.43;;;;;;;;;;5015643;28;20049;-40
2022/04/03 05:47:06;;;;;;;16.33;9.88;;;;;;;;;;5014964;28;20058;-44
2022/04/03 05:49:32;;;;;;;17.15;9.48;;;;;;;;;;5014799;28;20054;-40
2022/04/03 05:51:58;;;;;;;17.33;9.35;;;;;;;;;;5014995;28;20084;-41
2022/04/03 05:54:25;;;;;;;16.25;8.93;;;;;;;;;;5015025;28;20092;-41
2022/04/03 05:56:51;;;;;;;17.70;9.85;;;;;;;;;;5014265;28;20057;-40
2022/04/03 05:59:19;;;;;;;16.80;9.20;;;;;;;;;;5014909;28;20077;-40
2022/04/03 06:01:46;;;;;;;15.55;8.73;;;;;;;;;;5014193;28;20049;-40
2022/04/03 06:04:12;;;;;;;16.10;9.43;;;;;;;;;;5014745;28;20065;-40
2022/04/03 06:06:38;;;;;;;17.35;9.40;;;;;;;;;;5014862;28;20116;-40
2022/04/03 06:09:05;;;;;;;19.30;8.73;;;;;;;;;;5014356;28;20046;-40
2022/04/03 06:11:31;;;;;;;16.13;9.07;;;;;;;;;;5014617;28;20116;-40
2022/04/03 06:13:57;;;;;;;15.90;8.93;;;;;;;;;;5014418;28;20058;-40
2022/04/03 06:16:25;;;;;;;14.57;8.40;;;;;;;;;;5014352;28;20050;-40
2022/04/03 06:18:53;;;;;;;15.13;8.85;;;;;;;;;;5014248;28;20064;-40
2022/04/03 06:21:19;;;;;;;15.80;8.52;;;;;;;;;;5014666;28;20060;-42
2022/04/03 06:23:45;;;;;;;15.77;8.77;;;;;;;;;;5014476;28;20054;-40
2022/04/03 06:26:12;;;;;;;15.27;8.55;;;;;;;;;;5014514;28;20049;-40
2022/04/03 06:28:38;;;;;;;16.25;8.82;;;;;;;;;;5014226;28;20517;-40
2022/04/03 06:31:05;;;;;;;15.38;8.50;;;;;;;;;;5014688;28;20410;-40
2022/04/03 06:33:33;;;;;;;16.92;8.45;;;;;;;;;;5015010;28;20053;-41
2022/04/03 06:36:00;;;;;;;15.88;9.10;;;;;;;;;;5013804;28;20054;-43
2022/04/03 06:38:27;;;;;;;16.30;8.75;;;;;;;;;;5014322;28;20387;-40
2022/04/03 06:40:54;;;;;;;15.07;8.52;;;;;;;;;;5014383;28;20050;-40
2022/04/03 06:43:21;;;;;;;14.55;8.20;;;;;;;;;;5013932;28;20069;-41
2022/04/03 06:45:48;;;;;;;15.82;8.38;;;;;;;;;;5013895;28;20076;-40
2022/04/03 06:48:14;;;;;;;15.43;8.75;;;;;;;;;;5013711;28;20060;-40
2022/04/03 06:50:42;;;;;;;14.93;8.85;;;;;;;;;;5014099;28;20050;-40
2022/04/03 06:53:09;;;;;;;15.40;8.50;;;;;;;;;;5013938;28;20064;-42
2022/04/03 06:55:35;;;;;;;15.50;8.10;;;;;;;;;;5013884;28;20065;-40
2022/04/03 06:58:02;;;;;;;14.88;8.52;;;;;;;;;;5013784;28;20094;-41
2022/04/03 07:00:28;;;;;;;14.75;8.48;;;;;;;;;;5014097;28;20160;-40
2022/04/03 07:02:55;;;;;;;15.75;8.27;;;;;;;;;;5013800;28;20046;-41
2022/04/03 07:05:21;;;;;;;15.68;8.35;;;;;;;;;;5013276;28;20050;-40
2022/04/03 07:07:51;;;;;;;15.07;8.20;;;;;;;;;;5013570;28;20064;-41
2022/04/03 07:10:17;;;;;;;14.77;8.07;;;;;;;;;;5013510;28;20056;-40
2022/04/03 07:12:43;;;;;;;14.85;8.13;;;;;;;;;;5013897;28;20061;-39
2022/04/03 07:15:12;;;;;;;14.50;8.00;;;;;;;;;;5013926;28;20050;-40
2022/04/03 07:17:38;;;;;;;14.20;7.80;;;;;;;;;;5013078;28;20049;-40
2022/04/03 07:20:05;;;;;;;14.02;7.95;;;;;;;;;;5013471;28;20527;-40
2022/04/03 07:22:32;;;;;;;14.60;8.05;;;;;;;;;;5013104;28;20050;-40
2022/04/03 07:24:59;;;;;;;14.73;7.90;;;;;;;;;;5013454;28;20061;-40
2022/04/03 07:27:27;;;;;;;14.25;7.95;;;;;;;;;;5013193;28;20057;-39
2022/04/03 07:29:53;;;;;;;14.32;7.80;;;;;;;;;;5013662;28;20046;-40
2022/04/03 07:32:19;;;;;;;14.60;8.18;;;;;;;;;;5013368;28;20468;-41
2022/04/03 07:34:46;;;;;;;13.77;7.57;;;;;;;;;;5013280;28;20518;-40
2022/04/03 07:37:12;;;;;;;14.48;7.97;;;;;;;;;;5013371;28;20108;-38
2022/04/03 07:39:38;;;;;;;13.93;7.70;;;;;;;;;;5013127;28;20054;-41
2022/04/03 07:42:06;;;;;;;13.98;7.93;;;;;;;;;;5013266;28;20475;-41
2022/04/03 07:44:32;;;;;;;14.63;7.95;;;;;;;;;;5013671;28;20062;-40
2022/04/03 07:46:59;;;;;;;13.82;7.53;;;;;;;;;;5013863;28;20060;-43
2022/04/03 07:49:25;;;;;;;14.90;7.55;;;;;;;;;;5017268;28;20104;-40
2022/04/03 07:51:51;;;;;;;14.05;7.43;;;;;;;;;;5017344;28;20120;-40
2022/04/03 07:54:18;;;;;;;14.07;7.53;;;;;;;;;;5017027;28;20050;-40
2022/04/03 07:56:44;;;;;;;13.40;7.25;;;;;;;;;;5016958;28;20050;-40
2022/04/03 07:59:12;;;;;;;14.23;7.95;;;;;;;;;;5016923;28;20073;-40
2022/04/03 08:01:38;;;;;;;14.00;7.60;;;;;;;;;;5016981;28;20533;-40
2022/04/03 08:04:04;;;;;;;13.65;7.13;;;;;;;;;;5017069;28;20128;-40
2022/04/03 08:06:30;;;;;;;13.02;7.03;;;;;;;;;;5017195;28;20057;-41
2022/04/03 08:08:57;;;;;;;13.80;7.80;;;;;;;;;;5016495;28;20058;-40
2022/04/03 08:11:23;;;;;;;14.30;7.65;;;;;;;;;;5016874;28;20129;-41
2022/04/03 08:13:50;;;;;;;13.30;7.50;;;;;;;;;;5016702;28;20573;-40
2022/04/03 08:16:17;;;;;;;14.00;7.97;;;;;;;;;;5016787;28;20057;-41
2022/04/03 08:18:44;;;;;;;13.18;7.35;;;;;;;;;;5016446;28;20110;-41
2022/04/03 08:21:10;;;;;;;13.93;7.55;;;;;;;;;;5016402;28;20070;-40
2022/04/03 08:23:37;;;;;;;14.15;7.75;;;;;;;;;;5016827;28;20049;-43
2022/04/03 08:26:03;;;;;;;13.88;7.63;;;;;;;;;;5016269;28;20050;-40
2022/04/03 08:28:30;;;;;;;13.90;7.45;;;;;;;;;;5016553;28;20063;-41
2022/04/03 08:30:56;;;;;;;14.45;7.22;;;;;;;;;;5016082;28;20104;-40
2022/04/03 08:33:24;;;;;;;13.80;7.75;;;;;;;;;;5016439;28;20053;-41
2022/04/03 08:35:51;;;;;;;13.57;7.32;;;;;;;;;;5016380;28;20054;-41
2022/04/03 08:38:18;;;;;;;14.45;7.43;;;;;;;;;;5016210;28;20077;-41
2022/04/03 08:40:44;;;;;;;14.63;8.10;;;;;;;;;;5016416;28;20053;-41
2022/04/03 08:43:10;;;;;;;13.93;7.50;;;;;;;;;;5016165;28;20061;-40
2022/04/03 08:45:37;;;;;;;12.63;6.80;;;;;;;;;;5015911;28;20471;-41
2022/04/03 08:48:03;;;;;;;13.02;7.40;;;;;;;;;;5015683;28;20050;-40
2022/04/03 08:50:32;;;;;;;12.73;6.88;;;;;;;;;;5015959;28;20057;-41
2022/04/03 08:52:59;;;;;;;13.13;7.05;;;;;;;;;;5016128;28;20124;-41
2022/04/03 08:55:26;;;;;;;12.65;6.78;;;;;;;;;;5015648;28;20498;-40
2022/04/03 08:57:52;;;;;;;13.15;6.70;;;;;;;;;;5015763;28;20116;-42
2022/04/03 09:00:18;;;;;;;11.80;6.50;;;;;;;;;;5015723;28;20475;-41
2022/04/03 09:02:46;;;;;;;13.32;7.00;;;;;;;;;;5015576;28;20060;-40
2022/04/03 09:05:12;;;;;;;12.90;6.70;;;;;;;;;;5015710;28;20430;-40
2022/04/03 09:07:40;;;;;;;12.23;6.57;;;;;;;;;;5015677;28;20061;-41
2022/04/03 09:10:08;;;;;;;12.98;7.13;;;;;;;;;;5015057;28;20972;-40
2022/04/03 09:12:34;;;;;;;13.32;6.80;;;;;;;;;;5015449;28;20058;-41
2022/04/03 09:15:01;;;;;;;17.65;6.95;;;;;;;;;;5015307;28;20111;-40
2022/04/03 09:17:34;;;;;;;18.30;7.47;;;;;;;;;;5015642;28;20123;-40
2022/04/03 09:20:01;;;;;;;16.70;6.88;;;;;;;;;;5013827;28;20046;-40
2022/04/03 09:22:30;;;;;;;13.10;6.70;;;;;;;;;;5015402;28;20488;-41
2022/04/03 09:24:58;;;;;;;14.73;6.68;;;;;;;;;;5014278;28;20069;-40
2022/04/03 09:27:24;;;;;;;15.02;6.68;;;;;;;;;;5015474;28;20455;-41
2022/04/03 09:30:00;;;;;;;19.38;8.00;;;;;;;;;;5014703;28;20061;-40
2022/04/03 09:32:27;;;;;;;17.70;6.50;;;;;;;;;;5012534;28;20054;-40
2022/04/03 09:34:55;;;;;;;15.75;5.72;;;;;;;;;;5014616;28;20058;-40
2022/04/03 09:37:22;;;;;;;14.40;4.22;;;;;;;;;;5013120;28;20062;-42
2022/04/03 09:39:52;;;;;;;12.40;3.90;;;;;;;;;;5015184;28;20149;-40
2022/04/03 09:42:20;;;;;;;11.63;3.83;;;;;;;;;;5012956;28;20094;-37
2022/04/03 09:44:49;;;;;;;11.13;3.60;;;;;;;;;;5013995;28;20058;-37
2022/04/03 09:47:19;;;;;;;11.93;3.83;;;;;;;;;;5014733;28;20065;-38
2022/04/03 09:49:50;;;;;;;11.27;3.90;;;;;;;;;;5013647;28;20050;-38
2022/04/03 09:52:31;;;;;;;9.48;3.50;;;;;;;;;;5014193;28;20054;-37
2022/04/03 09:54:57;;;;;;;13.82;3.60;;;;;;;;;;5013515;28;20045;-44
2022/04/03 09:57:25;;;;;;;12.95;3.70;;;;;;;;;;5014454;28;20057;-34
2022/04/03 09:59:53;;;;;;;17.75;3.70;;;;;;;;;;5012639;28;20049;-37
2022/04/03 10:02:20;;;;;;;15.85;3.67;;;;;;;;;;5014190;28;20063;-37
2022/04/03 10:04:46;;;;;;;13.18;3.50;;;;;;;;;;5013535;28;20058;-37
2022/04/03 10:07:13;;;;;;;10.07;3.25;;;;;;;;;;5013967;28;20513;-36
2022/04/03 10:09:43;;;;;;;11.82;3.72;;;;;;;;;;5012638;28;20085;-36
2022/04/03 10:12:10;;;;;;;15.52;3.63;;;;;;;;;;5013988;28;20046;-37
2022/04/03 10:14:39;;;;;;;17.75;3.55;;;;;;;;;;5013222;28;20053;-36
2022/04/03 10:17:06;;;;;;;12.30;3.38;;;;;;;;;;5014334;28;20053;-37
2022/04/03 10:19:32;;;;;;;13.45;3.28;;;;;;;;;;5012695;28;20057;-37
2022/04/03 10:21:59;;;;;;;14.38;3.25;;;;;;;;;;5013858;28;20057;-37
2022/04/03 10:24:27;;;;;;;21.15;3.30;;;;;;;;;;5013317;28;20049;-36
2022/04/03 10:26:58;;;;;;;19.00;3.42;;;;;;;;;;5012249;28;20053;-36
2022/04/03 10:29:25;;;;;;;11.85;3.60;;;;;;;;;;5014162;28;20066;-37
2022/04/03 10:31:58;;;;;;;10.93;2.92;;;;;;;;;;5013510;28;20046;-37
2022/04/03 10:34:26;;;;;;;13.88;3.20;;;;;;;;;;5013248;28;20075;-37
2022/04/03 10:36:52;;;;;;;14.20;3.08;;;;;;;;;;5012931;28;20050;-37
2022/04/03 10:39:22;;;;;;;13.98;3.72;;;;;;;;;;5014247;28;20050;-36
2022/04/03 10:41:48;;;;;;;10.57;3.00;;;;;;;;;;5012354;28;20144;-37
2022/04/03 10:44:15;;;;;;;11.68;3.10;;;;;;;;;;5013806;28;20060;-37
2022/04/03 10:47:00;;;;;;;13.52;3.22;;;;;;;;;;5013210;28;20054;-37
2022/04/03 10:49:30;;;;;;;14.80;3.42;;;;;;;;;;5013896;28;20120;-37
2022/04/03 10:51:57;;;;;;;12.95;3.20;;;;;;;;;;5009963;28;20041;-37
2022/04/03 10:54:29;;;;;;;10.15;3.13;;;;;;;;;;5012227;28;20062;-37
2022/04/03 10:57:11;;;;;;;12.68;2.97;;;;;;;;;;5012429;28;20429;-37
2022/04/03 10:59:37;;;;;;;14.45;3.30;;;;;;;;;;5012790;28;20054;-37
2022/04/03 11:02:13;;;;;;;16.33;3.05;;;;;;;;;;5013419;28;20050;-37
2022/04/03 11:04:40;;;;;;;10.25;3.15;;;;;;;;;;5012252;28;20054;-37
2022/04/03 11:07:12;;;;;;;10.27;3.05;;;;;;;;;;5013153;28;20049;-36
2022/04/03 11:09:40;;;;;;;12.10;3.78;;;;;;;;;;5011491;28;20049;-37
2022/04/03 11:12:07;;;;;;;14.80;3.30;;;;;;;;;;5010895;28;20053;-37
2022/04/03 11:14:55;;;;;;;17.23;3.58;;;;;;;;;;5030081;28;160523;-37
2022/04/03 11:17:36;;;;;;;16.45;3.83;;;;;;;;;;5049367;28;20065;-37
2022/04/03 11:20:04;;;;;;;15.50;4.05;;;;;;;;;;5052454;28;20080;-36
2022/04/03 11:22:31;;;;;;;13.35;3.63;;;;;;;;;;5052940;28;20347;-36
2022/04/03 11:24:58;;;;;;;13.75;3.70;;;;;;;;;;5055086;28;20139;-36
2022/04/03 11:27:25;;;;;;;16.38;3.45;;;;;;;;;;5056988;28;20057;-37
2022/04/03 11:29:52;;;;;;;15.93;3.60;;;;;;;;;;5055978;28;20049;-31
2022/04/03 11:32:20;;;;;;;13.18;3.10;;;;;;;;;;5055218;28;20049;-37
2022/04/03 11:34:56;;;;;;;10.38;3.47;;;;;;;;;;5057067;28;20096;-37
2022/04/03 11:37:24;;;;;;;13.10;3.13;;;;;;;;;;5056062;28;20061;-37
2022/04/03 11:39:52;;;;;;;12.15;3.35;;;;;;;;;;5056708;28;20045;-35
2022/04/03 11:42:23;;;;;;;14.05;3.60;;;;;;;;;;5056503;28;20060;-34
2022/04/03 11:44:52;;;;;;;11.55;3.28;;;;;;;;;;5055122;28;20124;-36
2022/04/03 11:47:22;;;;;;;11.13;3.60;;;;;;;;;;5056718;28;20085;-37
2022/04/03 11:50:04;;;;;;;16.20;4.05;;;;;;;;;;5056213;28;20136;-37
2022/04/03 11:52:35;;;;;;;13.90;4.18;;;;;;;;;;5056498;28;20049;-37
2022/04/03 11:55:01;;;;;;;19.20;4.63;;;;;;;;;;5056819;28;20417;-37
2022/04/03 11:57:27;;;;;;;14.48;3.83;;;;;;;;;;5056313;28;20390;-37
2022/04/03 11:59:54;;;;;;;12.32;3.50;;;;;;;;;;5055983;28;20064;-37
2022/04/03 12:02:21;;;;;;;12.95;3.25;;;;;;;;;;5054176;28;20045;-35
2022/04/03 12:04:47;;;;;;;21.35;3.67;;;;;;;;;;5055104;28;20064;-37
2022/04/03 12:07:14;;;;;;;14.40;3.60;;;;;;;;;;5056064;28;20057;-37
2022/04/03 12:09:42;;;;;;;13.13;3.50;;;;;;;;;;5055100;28;20084;-36
2022/04/03 12:12:08;;;;;;;;;;;;;;;;;;5056329;28;20052;-35
2022/04/03 12:14:36;;;;;;;12.13;3.33;;;;;;;;;;5055156;28;19954;-37
2022/04/03 12:17:03;;;;;;;15.25;3.50;;;;;;;;;;5055793;28;20059;-36
2022/04/03 12:19:30;;;;;;;13.48;3.08;;;;;;;;;;5055954;28;20060;-36
2022/04/03 12:21:57;;;;;;;17.02;3.97;;;;;;;;;;5054926;28;20045;-36
2022/04/03 12:24:24;;;;;;;16.90;4.38;;;;;;;;;;5055253;28;20138;-37
2022/04/03 12:26:54;;;;;;;16.08;3.88;;;;;;;;;;5055553;28;20063;-37
2022/04/03 12:29:21;;;;;;;13.05;3.53;;;;;;;;;;5055906;28;20052;-36
2022/04/03 12:31:56;;;;;;;20.63;3.75;;;;;;;;;;5055268;28;20099;-36
2022/04/03 12:34:22;;;;;;;13.32;3.45;;;;;;;;;;5054605;28;20425;-37
2022/04/03 12:36:49;;;;;;;14.68;3.30;;;;;;;;;;5054878;28;20052;-36
2022/04/03 12:39:45;;;;;;;8.90;2.00;;;;;;;;;;5053100;28;20626;-34
2022/04/03 12:42:15;;;;;;;7.15;1.85;;;;;;;;;;5054080;28;20559;-34
2022/04/03 12:44:44;;;;;;;9.32;2.00;;;;;;;;;;5053722;28;20053;-34
2022/04/03 12:47:17;;;;;;;11.20;2.30;;;;;;;;;;5055209;28;20053;-35
2022/04/03 12:49:45;;;;;;;12.48;2.17;;;;;;;;;;5054378;28;20048;-34
2022/04/03 12:52:12;;;;;;;9.35;2.42;;;;;;;;;;5053532;28;20049;-35
2022/04/03 12:54:41;;;;;;;10.38;2.20;;;;;;;;;;5054453;28;20127;-35
2022/04/03 13:00:05;;;;;;;13.13;2.47;;;;;;;;;;5055141;28;20405;-35
2022/04/03 13:02:38;;;;;;;9.32;2.10;;;;;;;;;;5053769;28;20489;-35
2022/04/03 13:05:04;;;;;;;6.95;1.70;;;;;;;;;;5054742;28;20085;-35
2022/04/03 13:07:30;;;;;;;7.80;1.85;;;;;;;;;;5055277;28;20060;-34
2022/04/03 13:09:57;;;;;;;9.00;1.90;;;;;;;;;;5055089;28;20049;-35
2022/04/03 13:12:29;;;;;;;12.15;2.22;;;;;;;;;;5054017;28;20056;-35
2022/04/03 13:14:55;;;;;;;14.48;2.47;;;;;;;;;;5053931;28;20467;-35
2022/04/03 13:17:22;;;;;;;8.48;2.20;;;;;;;;;;5055141;28;20239;-35
2022/04/03 13:19:48;;;;;;;12.52;2.25;;;;;;;;;;5055021;28;20060;-35
2022/04/03 13:22:16;;;;;;;11.85;2.13;;;;;;;;;;5054687;28;20107;-35
2022/04/03 13:24:42;;;;;;;14.77;2.10;;;;;;;;;;5054795;28;20060;-35
2022/04/03 13:27:08;;;;;;;10.50;1.80;;;;;;;;;;5054713;28;20057;-35
2022/04/03 13:29:38;;;;;;;9.77;2.00;;;;;;;;;;5054456;28;20053;-36
2022/04/03 13:32:04;;;;;;;8.30;2.00;;;;;;;;;;5054116;28;20613;-45
2022/04/03 13:34:31;;;;;;;10.88;1.90;;;;;;;;;;5054908;28;20057;-35
2022/04/03 13:36:57;;;;;;;8.23;2.00;;;;;;;;;;5054041;28;20063;-35
2022/04/03 13:39:24;;;;;;;8.85;2.08;;;;;;;;;;5054205;28;20053;-33
2022/04/03 13:41:52;;;;;;;9.77;1.85;;;;;;;;;;5054508;28;20464;-35
2022/04/03 13:44:19;;;;;;;;;;;;;;;;;;5054147;28;20481;-35
2022/04/03 13:46:46;;;;;;;9.43;1.80;;;;;;;;;;5053554;28;20004;-35
2022/04/03 13:49:13;;;;;;;9.07;1.90;;;;;;;;;;5054282;28;20056;-35
2022/04/03 13:51:40;;;;;;;7.97;1.90;;;;;;;;;;5054258;28;20048;-35
2022/04/03 13:54:06;;;;;;;12.40;2.20;;;;;;;;;;5054287;28;20950;-35
2022/04/03 13:56:33;;;;;;;10.70;1.90;;;;;;;;;;5054013;28;20056;-35
2022/04/03 13:59:00;;;;;;;7.75;1.85;;;;;;;;;;5054120;28;20053;-39
2022/04/03 14:01:27;;;;;;;6.95;1.77;;;;;;;;;;5054316;28;20531;-36
2022/04/03 14:03:54;;;;;;;6.88;1.60;;;;;;;;;;5054634;28;20146;-36
2022/04/03 14:06:21;;;;;;;8.25;1.92;;;;;;;;;;5053765;28;20052;-36
2022/04/03 14:08:48;;;;;;;6.85;1.90;;;;;;;;;;5053777;28;20049;-35
2022/04/03 14:11:14;;;;;;;9.63;1.90;;;;;;;;;;5053700;28;20049;-36
2022/04/03 14:13:42;;;;;;;8.27;1.90;;;;;;;;;;5054060;28;20122;-35
2022/04/03 14:16:08;;;;;;;5.47;1.90;;;;;;;;;;5053858;28;20370;-36
2022/04/03 14:18:34;;;;;;;8.27;2.00;;;;;;;;;;5053628;28;20139;-36
2022/04/03 14:21:02;;;;;;;8.55;1.88;;;;;;;;;;5053976;28;20095;-36
2022/04/03 14:23:32;;;;;;;8.07;1.75;;;;;;;;;;5053718;28;20394;-36
2022/04/03 14:25:58;;;;;;;9.20;2.03;;;;;;;;;;5053150;28;20075;-36
2022/04/03 14:28:25;;;;;;;7.20;1.90;;;;;;;;;;5053892;28;20127;-37
2022/04/03 14:30:51;;;;;;;10.70;2.03;;;;;;;;;;5053448;28;20486;-38
2022/04/03 14:33:17;;;;;;;8.77;1.90;;;;;;;;;;5053662;28;20053;-36